Time;durP1;ratioP1;P1;durP2;ratioP2;P2;SDS_P1;SDS_P2;PMS_P1;PMS_P2;Temp;Humidity;BMP_temperature;BMP_pressure;BME280_temperature;BME280_humidity;BME280_pressure;Samples;Min_cycle;Max_cycle;Signal;HPM_P1;HPM_P2
2022/05/07 00:00:22;;;;;;;23.32;13.22;;;;;;;8.16;65.48;100959.58;1969196;90;28681;-68
2022/05/07 00:03:25;;;;;;;26.05;15.58;;;;;;;8.13;65.72;100961.00;1969231;90;27905;-63
2022/05/07 00:06:27;;;;;;;24.00;14.07;;;;;;;8.10;66.02;100961.97;1970870;89;34093;-66
2022/05/07 00:09:30;;;;;;;20.20;12.80;;;;;;;8.08;65.92;100961.61;1981435;89;29183;-68
2022/05/07 00:12:31;;;;;;;20.97;13.18;;;;;;;8.05;65.88;100957.22;1982854;89;27698;-66
2022/05/07 00:15:35;;;;;;;21.90;14.03;;;;;;;8.01;65.96;100953.77;1982650;89;29056;-63
2022/05/07 00:18:36;;;;;;;26.27;15.08;;;;;;;7.98;66.21;100951.18;1983165;89;31260;-66
2022/05/07 00:21:38;;;;;;;24.40;14.20;;;;;;;7.97;66.54;100953.91;1982826;89;34207;-62
2022/05/07 00:24:40;;;;;;;22.27;12.35;;;;;;;7.93;66.42;100946.45;1982920;89;29789;-64
2022/05/07 00:27:42;;;;;;;24.72;13.78;;;;;;;7.91;66.47;100951.81;1983239;89;27727;-68
2022/05/07 00:30:43;;;;;;;22.20;14.05;;;;;;;7.89;66.56;100952.79;1982980;89;28708;-65
2022/05/07 00:33:45;;;;;;;22.95;13.10;;;;;;;7.86;66.94;100961.73;1982798;89;33294;-66
2022/05/07 00:36:47;;;;;;;22.62;14.20;;;;;;;7.84;67.11;100960.03;1982763;89;33343;-67
2022/05/07 00:39:50;;;;;;;25.70;13.32;;;;;;;7.80;67.36;100959.69;1983015;89;29392;-66
2022/05/07 00:42:51;;;;;;;25.50;14.43;;;;;;;7.75;67.58;100963.83;1983468;89;27691;-64
2022/05/07 00:45:54;;;;;;;23.98;13.20;;;;;;;7.71;67.50;100967.48;1983494;89;29788;-68
2022/05/07 00:48:57;;;;;;;29.10;14.45;;;;;;;7.69;67.56;100976.02;1982757;89;31451;-64
2022/05/07 00:51:59;;;;;;;20.68;13.53;;;;;;;7.66;67.82;100971.62;1957090;89;34190;-66
2022/05/07 00:55:01;;;;;;;22.00;12.07;;;;;;;7.63;67.78;100965.50;1982406;89;29893;-61
2022/05/07 00:58:03;;;;;;;19.90;12.50;;;;;;;7.56;67.84;100965.65;1982787;89;27749;-67
2022/05/07 01:01:07;;;;;;;22.15;12.25;;;;;;;7.54;67.72;100962.62;1983428;89;29905;-66
2022/05/07 01:04:09;;;;;;;20.10;12.45;;;;;;;7.52;67.74;100958.67;1982516;89;31904;-66
2022/05/07 01:07:11;;;;;;;23.05;12.80;;;;;;;7.50;67.83;100951.61;1980677;89;34132;-68
2022/05/07 01:10:13;;;;;;;22.95;13.40;;;;;;;7.47;67.88;100949.02;1970912;90;30381;-67
2022/05/07 01:13:15;;;;;;;22.60;13.70;;;;;;;7.44;68.00;100954.88;1971154;90;27624;-68
2022/05/07 01:16:17;;;;;;;23.45;13.53;;;;;;;7.42;68.24;100951.38;1971044;90;29728;-69
2022/05/07 01:19:19;;;;;;;26.48;14.07;;;;;;;7.39;68.28;100950.55;1976097;89;31992;-68
2022/05/07 01:22:22;;;;;;;24.90;14.00;;;;;;;7.35;68.40;100952.43;1975688;90;32824;-66
2022/05/07 01:25:24;;;;;;;23.20;13.65;;;;;;;7.32;68.54;100951.64;1976389;90;30137;-67
2022/05/07 01:28:25;;;;;;;24.40;12.98;;;;;;;7.32;68.68;100954.30;1976177;90;27608;-64
2022/05/07 01:31:28;;;;;;;25.52;14.58;;;;;;;7.31;68.55;100946.75;1976135;90;29942;-63
2022/05/07 01:34:29;;;;;;;21.97;13.05;;;;;;;7.32;68.95;100948.98;1976516;90;31422;-68
2022/05/07 01:37:31;;;;;;;23.85;13.15;;;;;;;7.32;68.71;100947.64;1975020;90;34227;-66
2022/05/07 01:40:33;;;;;;;24.40;12.65;;;;;;;7.30;68.63;100947.22;1957461;90;30572;-67
2022/05/07 01:43:35;;;;;;;19.57;12.68;;;;;;;7.32;68.95;100945.84;1976714;89;27723;-67
2022/05/07 01:49:57;;;;;;;26.20;14.93;;;;;;;7.34;69.31;100948.48;1975555;90;31452;-66
2022/05/07 01:52:59;;;;;;;21.87;14.23;;;;;;;7.32;69.62;100939.64;1976383;90;33403;-68
2022/05/07 01:56:00;;;;;;;27.37;16.00;;;;;;;7.33;69.70;100942.26;1976143;90;30579;-67
2022/05/07 01:59:02;;;;;;;23.67;13.80;;;;;;;7.34;69.64;100941.82;1976213;90;27652;-68
2022/05/07 02:02:04;;;;;;;24.75;14.90;;;;;;;7.35;69.58;100938.24;1976229;90;29866;-66
2022/05/07 02:05:07;;;;;;;22.42;14.25;;;;;;;7.33;69.64;100936.93;1975756;90;32268;-70
2022/05/07 02:08:09;;;;;;;29.48;16.45;;;;;;;7.34;69.84;100934.69;1977215;90;32981;-67
2022/05/07 02:11:10;;;;;;;27.25;16.30;;;;;;;7.36;69.77;100936.86;1978593;90;29831;-62
2022/05/07 02:14:12;;;;;;;24.07;15.93;;;;;;;7.37;70.03;100935.05;1978935;90;27605;-62
2022/05/07 02:17:14;;;;;;;31.35;15.08;;;;;;;7.42;70.04;100934.48;1978674;90;29241;-61
2022/05/07 02:20:15;;;;;;;28.25;14.43;;;;;;;7.45;70.01;100939.73;1978797;90;31421;-61
2022/05/07 02:23:18;;;;;;;28.27;15.13;;;;;;;7.49;70.23;100940.08;1978407;90;33896;-74
2022/05/07 02:26:20;;;;;;;22.67;14.87;;;;;;;7.54;70.26;100939.48;1978858;90;29723;-66
2022/05/07 02:29:22;;;;;;;24.45;14.40;;;;;;;7.58;70.18;100939.83;1978940;90;27800;-62
2022/05/07 02:32:24;;;;;;;25.50;14.85;;;;;;;7.64;70.25;100941.92;1978466;90;29948;-65
2022/05/07 02:35:26;;;;;;;20.40;13.98;;;;;;;7.69;70.20;100942.67;1978706;90;31568;-64
2022/05/07 02:38:28;;;;;;;26.17;15.48;;;;;;;7.74;70.22;100944.30;1978130;90;34198;-64
2022/05/07 02:44:51;;;;;;;24.90;15.10;;;;;;;7.88;70.50;100933.70;1979037;90;27646;-62
2022/05/07 02:47:53;;;;;;;27.17;15.50;;;;;;;7.94;70.59;100936.20;1978501;90;30091;-65
2022/05/07 02:50:54;;;;;;;22.07;13.72;;;;;;;8.00;70.59;100933.34;1978882;90;32427;-63
2022/05/07 02:53:56;;;;;;;23.25;14.98;;;;;;;8.06;70.48;100937.17;1978566;90;34146;-64
2022/05/07 02:56:59;;;;;;;23.80;14.78;;;;;;;8.13;70.51;100938.31;1977289;90;30229;-64
2022/05/07 03:00:01;;;;;;;25.30;15.13;;;;;;;8.16;70.42;100932.45;1978678;90;27671;-64
2022/05/07 03:03:03;;;;;;;23.50;14.58;;;;;;;8.21;70.41;100931.83;1978454;90;28680;-65
2022/05/07 03:06:05;;;;;;;24.65;15.65;;;;;;;8.25;70.47;100927.30;1977662;90;31791;-62
2022/05/07 03:09:07;;;;;;;26.02;15.85;;;;;;;8.30;70.46;100933.83;1962879;90;34438;-66
2022/05/07 03:12:10;;;;;;;25.97;14.83;;;;;;;8.33;70.73;100933.27;1951748;91;29181;-59
2022/05/07 03:15:12;;;;;;;23.95;14.47;;;;;;;8.36;70.66;100940.30;1952899;91;27739;-65
2022/05/07 03:18:14;;;;;;;20.40;14.33;;;;;;;8.38;70.57;100937.12;1951341;91;29156;-65
2022/05/07 03:21:16;;;;;;;22.50;13.83;;;;;;;8.42;70.64;100934.78;1950902;91;32504;-62
2022/05/07 03:24:18;;;;;;;22.50;14.47;;;;;;;8.48;70.64;100947.10;1952006;91;33600;-65
2022/05/07 03:27:22;;;;;;;22.58;14.25;;;;;;;8.53;70.58;100936.27;1951920;91;29380;-63
2022/05/07 03:30:24;;;;;;;27.27;16.97;;;;;;;8.58;70.59;100943.25;1952084;91;27748;-64
2022/05/07 03:33:26;;;;;;;25.00;16.50;;;;;;;8.62;70.59;100942.20;1951411;91;29107;-64
2022/05/07 03:36:28;;;;;;;25.25;17.37;;;;;;;8.69;70.57;100940.69;1951695;91;31662;-66
2022/05/07 03:39:31;;;;;;;31.52;17.98;;;;;;;8.75;70.60;100938.70;1951928;91;34216;-64
2022/05/07 03:42:33;;;;;;;30.85;17.87;;;;;;;8.85;70.60;100943.28;1975367;89;29354;-63
2022/05/07 03:45:36;;;;;;;31.07;17.77;;;;;;;8.95;70.65;100942.05;1980723;89;27648;-64
2022/05/07 03:48:38;;;;;;;33.15;19.00;;;;;;;9.05;70.62;100945.78;1985711;89;28922;-59
2022/05/07 03:55:00;;;;;;;33.35;18.85;;;;;;;9.25;70.54;100943.33;1985540;89;34172;-66
2022/05/07 03:58:02;;;;;;;34.48;20.70;;;;;;;9.37;70.43;100945.16;1985760;89;30495;-64
2022/05/07 04:01:05;;;;;;;35.43;20.43;;;;;;;9.48;70.37;100946.13;1954591;89;27642;-65
2022/05/07 04:04:07;;;;;;;33.20;19.37;;;;;;;9.57;70.27;100941.34;1979351;89;29927;-65
2022/05/07 04:07:09;;;;;;;27.90;18.02;;;;;;;9.69;70.30;100944.02;1981509;89;32086;-65
2022/05/07 04:10:11;;;;;;;31.65;19.32;;;;;;;9.80;70.27;100938.28;1982390;89;33382;-65
2022/05/07 04:13:13;;;;;;;29.65;18.25;;;;;;;9.93;70.25;100940.06;1982990;89;30603;-63
2022/05/07 04:16:15;;;;;;;29.12;18.87;;;;;;;10.08;70.18;100942.64;1983447;89;27735;-64
2022/05/07 04:19:17;;;;;;;29.20;18.70;;;;;;;10.25;70.10;100946.02;1982937;89;29924;-63
2022/05/07 04:22:19;;;;;;;29.67;18.73;;;;;;;10.40;69.99;100951.75;1983050;89;32280;-65
2022/05/07 04:25:21;;;;;;;28.00;17.85;;;;;;;10.54;69.88;100941.84;1983441;89;34126;-63
2022/05/07 04:28:24;;;;;;;33.50;19.30;;;;;;;10.73;69.74;100950.91;1982869;89;30353;-63
2022/05/07 04:31:26;;;;;;;31.52;18.45;;;;;;;10.91;69.62;100953.30;1982483;89;27711;-65
2022/05/07 04:34:29;;;;;;;31.30;20.25;;;;;;;11.13;69.52;100953.77;1982054;89;30059;-65
2022/05/07 04:37:31;;;;;;;30.55;20.35;;;;;;;11.39;69.54;100947.77;1983315;89;31186;-62
2022/05/07 04:40:33;;;;;;;34.85;23.10;;;;;;;11.66;69.37;100947.53;1982449;89;34209;-65
2022/05/07 04:43:35;;;;;;;31.75;22.32;;;;;;;11.96;69.24;100948.44;1983141;89;30548;-65
2022/05/07 04:46:37;;;;;;;35.38;23.42;;;;;;;12.35;69.34;100960.14;1983306;89;27635;-64
2022/05/07 04:49:39;;;;;;;32.03;20.57;;;;;;;13.00;69.15;100951.68;1983720;89;29915;-62
2022/05/07 04:52:43;;;;;;;31.23;21.02;;;;;;;14.17;68.56;100951.52;1982090;89;27996;-65
2022/05/07 04:55:45;;;;;;;41.85;24.95;;;;;;;14.94;66.50;100961.72;1983758;89;34014;-63
2022/05/07 04:58:47;;;;;;;33.08;23.73;;;;;;;15.24;65.62;100960.89;1983397;89;30034;-65
2022/05/07 05:01:49;;;;;;;37.80;22.82;;;;;;;15.36;64.62;100963.36;1984234;89;27656;-63
2022/05/07 05:04:52;;;;;;;28.10;20.90;;;;;;;15.49;64.59;100961.16;1983315;89;28835;-65
2022/05/07 05:07:54;;;;;;;26.12;19.50;;;;;;;15.62;63.95;100972.60;1983663;89;32254;-64
2022/05/07 05:10:56;;;;;;;25.72;18.52;;;;;;;15.81;62.82;100965.59;1983158;89;33373;-64
2022/05/07 05:13:58;;;;;;;33.05;20.05;;;;;;;15.81;62.82;100965.59;1961226;89;29581;-62
2022/05/07 05:17:00;;;;;;;31.42;19.27;;;;;;;15.92;62.81;100970.38;1983674;89;27704;-61
2022/05/07 05:20:04;;;;;;;30.80;20.40;;;;;;;15.96;62.08;100977.34;1983601;89;29553;-67
2022/05/07 05:23:07;;;;;;;28.07;19.35;;;;;;;16.07;61.74;100974.83;1983238;89;31931;-64
2022/05/07 05:26:09;;;;;;;30.17;20.35;;;;;;;16.14;61.67;100973.97;1983483;89;33622;-66
2022/05/07 05:29:13;;;;;;;25.88;19.77;;;;;;;16.21;61.16;100969.92;1982679;89;29936;-61
2022/05/07 05:32:17;;;;;;;29.25;21.62;;;;;;;16.21;61.16;100969.92;1982843;89;27670;-61
2022/05/07 05:35:22;;;;;;;27.70;21.62;;;;;;;16.18;60.77;100974.63;1983274;89;29085;-65
2022/05/07 05:38:24;;;;;;;27.40;20.55;;;;;;;16.23;60.67;100975.22;1982945;89;31901;-64
2022/05/07 05:41:26;;;;;;;27.95;20.27;;;;;;;16.26;60.64;100975.04;1983332;89;33021;-63
2022/05/07 05:44:28;;;;;;;27.30;19.82;;;;;;;16.33;60.25;100975.52;1982415;89;29122;-65
2022/05/07 05:47:30;;;;;;;25.88;21.07;;;;;;;16.34;60.10;100989.42;1981869;89;27740;-62
2022/05/07 05:50:32;;;;;;;31.37;22.80;;;;;;;16.38;59.87;100985.08;1981859;89;29380;-65
2022/05/07 05:53:34;;;;;;;30.37;22.20;;;;;;;16.45;59.71;100983.34;1982274;89;32237;-65
2022/05/07 05:56:36;;;;;;;34.35;23.07;;;;;;;16.50;59.80;100992.90;1983388;89;33431;-64
2022/05/07 05:59:38;;;;;;;36.10;21.60;;;;;;;16.58;59.61;100990.17;1983260;89;29750;-68
2022/05/07 06:02:43;;;;;;;34.60;22.35;;;;;;;16.69;59.23;100989.02;1983184;89;27666;-64
2022/05/07 06:05:44;;;;;;;34.00;22.40;;;;;;;16.74;59.04;100990.06;1983248;89;29954;-60
2022/05/07 06:08:47;;;;;;;32.13;21.45;;;;;;;16.87;58.98;100986.95;1981460;89;30868;-62
2022/05/07 06:11:49;;;;;;;31.93;21.50;;;;;;;16.98;58.58;100997.10;1971098;90;34149;-65
2022/05/07 06:14:54;;;;;;;34.05;22.67;;;;;;;17.10;58.47;100991.38;1971581;90;29391;-67
2022/05/07 06:17:56;;;;;;;28.40;22.25;;;;;;;17.19;58.16;100993.95;1971396;90;27742;-61
2022/05/07 06:21:01;;;;;;;30.80;22.62;;;;;;;17.31;57.87;100997.19;1971402;90;29861;-66
2022/05/07 06:27:33;;;;;;;28.25;21.50;;;;;;;17.54;57.59;101002.91;1970352;90;34302;-64
2022/05/07 06:30:35;;;;;;;32.98;21.75;;;;;;;17.63;57.12;101004.98;1969214;90;29788;-64
2022/05/07 06:33:39;;;;;;;33.60;21.60;;;;;;;17.66;56.92;101000.71;1969221;90;27721;-62
2022/05/07 06:36:41;;;;;;;33.75;22.25;;;;;;;17.72;56.70;100998.92;1969098;90;28684;-67
2022/05/07 06:39:43;;;;;;;33.48;22.60;;;;;;;17.84;56.45;100996.36;1971744;90;30902;-64
2022/05/07 06:42:45;;;;;;;29.67;20.90;;;;;;;17.92;56.30;100994.84;1969035;90;33421;-66
2022/05/07 06:45:48;;;;;;;31.68;21.25;;;;;;;18.08;56.23;100992.45;1971489;90;29393;-66
2022/05/07 06:48:50;;;;;;;31.87;21.10;;;;;;;18.22;55.68;100997.77;1969174;90;27648;-65
2022/05/07 06:51:52;;;;;;;33.35;21.25;;;;;;;18.37;55.78;100996.29;1953665;90;29966;-67
2022/05/07 06:54:54;;;;;;;26.02;19.57;;;;;;;18.60;55.40;101000.56;1966146;90;31255;-66
2022/05/07 06:57:58;;;;;;;30.92;21.70;;;;;;;18.84;55.41;101001.97;1965263;90;33038;-64
2022/05/07 07:01:02;;;;;;;32.77;21.50;;;;;;;19.07;54.67;101006.20;1965505;90;29477;-66
2022/05/07 07:04:05;;;;;;;29.67;21.30;;;;;;;19.16;54.26;101005.53;1979076;90;27661;-66
2022/05/07 07:07:08;;;;;;;29.63;19.35;;;;;;;19.38;54.09;101007.97;1978771;90;28669;-64
2022/05/07 07:10:11;;;;;;;27.52;20.57;;;;;;;19.61;54.00;101004.86;1978355;90;31892;-64
2022/05/07 07:13:14;;;;;;;29.75;20.02;;;;;;;19.79;53.57;101013.47;1978075;90;34249;-64
2022/05/07 07:16:16;;;;;;;35.40;19.05;;;;;;;20.04;53.03;101009.73;1978512;90;30169;-66
2022/05/07 07:19:19;;;;;;;28.80;17.45;;;;;;;20.29;52.35;101014.58;1978821;90;27572;-65
2022/05/07 07:22:21;;;;;;;26.37;16.15;;;;;;;20.53;52.07;101012.26;1977852;90;29540;-65
2022/05/07 07:25:24;;;;;;;18.17;14.80;;;;;;;20.75;51.60;101010.52;1954413;90;31099;-64
2022/05/07 07:28:26;;;;;;;23.38;16.27;;;;;;;20.97;51.58;101013.74;1945890;91;33799;-62
2022/05/07 07:31:31;;;;;;;18.65;13.25;;;;;;;21.20;51.02;101005.50;1970235;90;30599;-59
2022/05/07 07:34:33;;;;;;;25.50;12.75;;;;;;;21.36;49.96;101003.73;1970688;90;28297;-60
2022/05/07 07:37:35;;;;;;;12.37;8.03;;;;;;;21.50;49.58;101002.57;1970387;90;29507;-60
2022/05/07 07:40:37;;;;;;;15.48;10.90;;;;;;;21.75;48.55;101004.58;1970431;90;32266;-59
2022/05/07 07:43:40;;;;;;;17.48;11.68;;;;;;;22.03;48.39;101004.42;1970373;90;33780;-61
2022/05/07 07:50:02;;;;;;;15.83;10.72;;;;;;;22.45;47.37;100996.20;1970822;90;28140;-62
2022/05/07 07:53:09;;;;;;;12.20;8.70;;;;;;;22.98;47.18;100998.32;1970466;90;29889;-61
2022/05/07 07:56:12;;;;;;;11.55;9.50;;;;;;;23.60;46.09;101000.00;1970387;89;31087;-63
2022/05/07 07:59:15;;;;;;;14.73;8.65;;;;;;;24.29;45.41;101002.16;1970282;90;33915;-63
2022/05/07 08:02:16;;;;;;;14.25;8.13;;;;;;;24.83;43.64;100998.27;1970599;90;29365;-63
2022/05/07 08:05:22;;;;;;;10.88;8.33;;;;;;;25.39;43.39;100995.95;1970092;90;27717;-65
2022/05/07 08:11:46;;;;;;;11.93;7.25;;;;;;;26.30;42.09;100987.97;1949703;91;31287;-65
2022/05/07 08:14:49;;;;;;;16.12;7.17;;;;;;;26.88;41.33;100983.28;1977567;90;33834;-66
2022/05/07 08:17:52;;;;;;;8.60;6.28;;;;;;;27.41;40.40;100988.02;1978056;89;29344;-64
2022/05/07 08:20:55;;;;;;;9.13;5.95;;;;;;;27.83;39.48;100981.55;1978185;90;27684;-63
2022/05/07 08:23:57;;;;;;;7.03;5.65;;;;;;;28.23;38.91;100988.56;1979096;89;28796;-63
2022/05/07 08:26:58;;;;;;;9.53;6.12;;;;;;;28.45;37.44;100992.46;1980650;89;31047;-64
2022/05/07 08:30:00;;;;;;;8.40;5.05;;;;;;;28.66;37.40;100987.72;1979250;89;32957;-64
2022/05/07 08:33:07;;;;;;;7.97;5.28;;;;;;;28.92;36.97;100988.50;1979283;89;30156;-63
2022/05/07 08:36:10;;;;;;;8.13;5.50;;;;;;;29.25;36.31;100985.03;1979000;89;27849;-65
2022/05/07 08:39:12;;;;;;;9.73;5.35;;;;;;;29.43;35.38;100988.05;1979368;89;28665;-65
2022/05/07 08:42:15;;;;;;;8.05;5.37;;;;;;;29.54;34.29;100981.21;1979453;89;31031;-64
2022/05/07 08:45:16;;;;;;;9.65;5.70;;;;;;;29.42;33.95;100978.05;1959791;89;32422;-64
2022/05/07 08:48:20;;;;;;;10.30;5.62;;;;;;;29.44;33.55;100977.34;1979371;89;30097;-64
2022/05/07 08:51:22;;;;;;;7.67;5.60;;;;;;;29.36;32.99;100980.16;1979291;89;27777;-65
2022/05/07 08:54:24;;;;;;;9.58;5.33;;;;;;;29.25;33.02;100977.27;1980440;89;29137;-65
2022/05/07 08:57:26;;;;;;;8.08;5.30;;;;;;;29.23;32.43;100980.72;1980672;89;31040;-64
2022/05/07 09:00:29;;;;;;;11.15;4.85;;;;;;;29.09;32.96;100974.11;1980833;88;32973;-67
2022/05/07 09:03:40;;;;;;;7.60;5.70;;;;;;;28.98;32.18;100969.86;1980230;89;29465;-65
2022/05/07 09:06:42;;;;;;;12.00;4.55;;;;;;;28.80;32.10;100973.75;1979405;89;28342;-65
2022/05/07 09:09:51;;;;;;;6.70;4.45;;;;;;;28.63;31.38;100977.58;1979515;89;28809;-66
2022/05/07 09:12:54;;;;;;;8.40;4.83;;;;;;;28.43;31.75;100976.61;1969361;90;31140;-65
2022/05/07 09:15:57;;;;;;;8.23;4.30;;;;;;;28.27;30.93;100972.03;1966479;90;33160;-65
2022/05/07 09:18:59;;;;;;;7.08;4.40;;;;;;;27.97;30.69;100977.20;1967477;89;29186;-64
2022/05/07 09:22:10;;;;;;;6.67;4.50;;;;;;;27.77;30.98;100967.61;1967165;90;27746;-65
2022/05/07 09:25:22;;;;;;;9.08;4.30;;;;;;;27.58;30.51;100962.80;1967780;90;28684;-64
2022/05/07 09:28:28;;;;;;;11.15;5.35;;;;;;;27.37;30.68;100964.12;1967097;90;31927;-66
2022/05/07 09:31:32;;;;;;;7.62;5.10;;;;;;;27.31;30.97;100957.92;1969732;90;32977;-66
2022/05/07 09:38:07;;;;;;;7.25;4.80;;;;;;;27.53;30.57;100964.70;1969784;90;27726;-63
2022/05/07 09:41:20;;;;;;;8.68;5.50;;;;;;;27.34;29.68;100954.83;1967017;90;28655;-62
2022/05/07 09:44:24;;;;;;;6.67;4.78;;;;;;;26.93;29.86;100951.50;1969783;90;31885;-64
2022/05/07 09:47:27;;;;;;;6.85;4.53;;;;;;;26.73;30.80;100948.65;1967159;90;33025;-67
2022/05/07 10:00:19;;;;;;;4.83;3.00;;;;;;;26.19;30.23;100931.43;1965734;90;31328;-63
2022/05/07 10:03:30;;;;;;;6.70;2.98;;;;;;;26.05;30.07;100937.00;1968254;90;32990;-65
2022/05/07 10:06:46;;;;;;;8.60;2.95;;;;;;;25.90;29.83;100935.84;1964758;90;31508;-67
2022/05/07 10:10:22;;;;;;;4.30;3.20;;;;;;;25.72;29.51;100934.04;1967882;90;28039;-65
2022/05/07 10:13:23;;;;;;;6.15;2.85;;;;;;;25.52;29.86;100927.02;1965163;90;28656;-64
2022/05/07 10:16:30;;;;;;;5.85;2.50;;;;;;;25.16;29.82;100927.84;1968092;90;32186;-65
2022/05/07 10:19:42;;;;;;;6.97;3.22;;;;;;;24.93;30.38;100929.70;1965409;90;33110;-65
2022/05/07 10:22:44;;;;;;;7.75;4.45;;;;;;;24.77;30.14;100916.66;1968122;90;30140;-64
2022/05/07 10:25:52;;;;;;;5.70;3.62;;;;;;;24.66;30.50;100919.07;1927761;90;27740;-66
2022/05/07 10:28:53;;;;;;;4.95;3.52;;;;;;;24.57;30.61;100915.37;1966758;90;28783;-66
2022/05/07 10:32:03;;;;;;;7.45;3.58;;;;;;;24.52;30.66;100915.48;1964862;90;31042;-65
2022/05/07 10:35:07;;;;;;;6.72;3.55;;;;;;;24.50;30.88;100921.61;1967913;90;32443;-68
2022/05/07 10:38:18;;;;;;;5.37;3.97;;;;;;;24.26;30.45;100910.20;1965514;90;29359;-67
2022/05/07 10:41:26;;;;;;;8.60;3.60;;;;;;;24.10;30.55;100907.24;1960122;90;27783;-71
2022/05/07 10:44:33;;;;;;;6.03;3.10;;;;;;;23.99;30.64;100905.58;1963964;90;28577;-66
2022/05/07 10:47:35;;;;;;;5.12;3.83;;;;;;;23.98;31.01;100905.22;1950638;90;31064;-63
2022/05/07 10:50:38;;;;;;;5.60;3.37;;;;;;;24.01;31.12;100911.73;1965379;90;33724;-67
2022/05/07 10:53:40;;;;;;;6.95;3.95;;;;;;;23.98;30.99;100903.86;1967987;90;29404;-65
2022/05/07 10:56:47;;;;;;;7.12;4.05;;;;;;;23.91;30.76;100899.42;1966700;90;27710;-65
2022/05/07 10:59:49;;;;;;;6.37;4.70;;;;;;;23.89;31.27;100897.37;1966572;90;28667;-66
2022/05/07 11:02:58;;;;;;;8.88;4.55;;;;;;;23.90;31.27;100901.83;1969236;90;31127;-65
2022/05/07 11:06:01;;;;;;;9.70;4.22;;;;;;;23.94;31.50;100891.44;1967328;89;33141;-64
2022/05/07 11:09:03;;;;;;;6.83;4.15;;;;;;;23.94;31.31;100900.50;1967322;90;29531;-65
2022/05/07 11:12:06;;;;;;;6.10;5.20;;;;;;;23.89;31.14;100896.00;1967231;89;27763;-65
2022/05/07 11:15:09;;;;;;;8.05;4.78;;;;;;;23.70;30.64;100890.05;1967377;90;28739;-67
2022/05/07 11:18:15;;;;;;;8.40;4.28;;;;;;;23.56;30.74;100891.41;1967111;89;31272;-65
2022/05/07 11:21:17;;;;;;;8.33;4.83;;;;;;;23.51;30.94;100886.34;1969561;90;32982;-66
2022/05/07 11:24:20;;;;;;;7.25;4.25;;;;;;;23.50;30.76;100885.14;1969743;89;29327;-65
2022/05/07 11:27:22;;;;;;;6.22;3.77;;;;;;;23.45;30.71;100876.02;1969763;90;27740;-65
2022/05/07 11:30:24;;;;;;;7.83;4.03;;;;;;;23.39;30.25;100873.85;1969691;89;29477;-65
2022/05/07 11:33:26;;;;;;;4.20;3.10;;;;;;;23.30;30.28;100872.85;1968977;89;32150;-64
2022/05/07 11:36:28;;;;;;;7.22;3.67;;;;;;;23.27;30.77;100869.04;1968834;89;32701;-65
2022/05/07 11:39:30;;;;;;;10.72;3.72;;;;;;;23.36;31.29;100867.30;1969489;90;29514;-65
2022/05/07 11:42:44;;;;;;;7.67;2.87;;;;;;;23.45;30.82;100865.08;1969801;89;27700;-67
2022/05/07 11:45:51;;;;;;;8.38;3.00;;;;;;;23.51;30.98;100864.47;1969589;90;33232;-64
2022/05/07 11:49:05;;;;;;;4.50;3.25;;;;;;;23.54;30.56;100864.70;1937573;90;31148;-65
2022/05/07 11:52:12;;;;;;;7.40;3.83;;;;;;;23.45;30.41;100863.70;1938800;91;32980;-66
2022/05/07 11:55:17;;;;;;;5.08;3.55;;;;;;;23.30;30.38;100860.55;1941009;91;29349;-65
2022/05/07 11:58:23;;;;;;;7.08;3.30;;;;;;;23.16;29.96;100858.23;1922158;91;27680;-65
2022/05/07 12:01:28;;;;;;;12.25;3.35;;;;;;;22.98;30.46;100862.20;1938793;91;28672;-65
2022/05/07 12:04:32;;;;;;;6.45;3.80;;;;;;;22.87;30.56;100857.74;1938442;91;31089;-62
2022/05/07 12:07:42;;;;;;;6.37;3.70;;;;;;;22.79;30.84;100854.36;1938847;91;33153;-66
2022/05/07 12:10:48;;;;;;;6.72;3.22;;;;;;;22.68;30.76;100849.88;1938831;91;29380;-66
2022/05/07 12:13:50;;;;;;;2.90;2.60;;;;;;;22.55;30.69;100850.14;1941607;91;27848;-65
2022/05/07 12:20:12;;;;;;;8.78;3.40;;;;;;;22.29;30.59;100843.81;1941134;91;31105;-71
2022/05/07 12:29:56;;;;;;;5.60;3.72;;;;;;;22.39;31.76;100837.50;1973125;89;27736;-62
2022/05/07 12:32:58;;;;;;;4.60;3.65;;;;;;;22.62;31.47;100832.69;1972936;90;28681;-63
2022/05/07 12:36:00;;;;;;;6.00;3.12;;;;;;;22.85;31.76;100822.86;1971983;90;31046;-64
2022/05/07 12:39:02;;;;;;;5.20;3.00;;;;;;;23.09;31.54;100826.52;1971236;90;33961;-62
2022/05/07 12:42:08;;;;;;;6.00;3.10;;;;;;;23.30;31.92;100826.38;1971581;90;29365;-63
2022/05/07 12:45:11;;;;;;;9.70;3.33;;;;;;;23.52;31.60;100825.69;1971655;90;28110;-65
2022/05/07 12:48:12;;;;;;;5.55;2.70;;;;;;;23.66;31.46;100821.11;1971605;90;28664;-64
2022/05/07 12:51:15;;;;;;;4.03;2.83;;;;;;;23.80;31.26;100829.34;1971576;90;31858;-64
2022/05/07 12:54:17;;;;;;;7.72;2.92;;;;;;;23.86;30.98;100825.14;1972344;90;32982;-64
2022/05/07 12:57:19;;;;;;;10.80;3.60;;;;;;;23.93;31.24;100828.14;1972927;90;29581;-62
2022/05/07 13:00:21;;;;;;;7.00;2.72;;;;;;;24.00;31.26;100818.84;1973210;90;27637;-61
2022/05/07 13:03:24;;;;;;;4.58;3.30;;;;;;;24.06;31.00;100823.72;1972872;90;28752;-62
2022/05/07 13:06:26;;;;;;;6.42;3.45;;;;;;;24.05;30.64;100813.27;1972738;90;32269;-62
2022/05/07 13:09:31;;;;;;;6.97;3.27;;;;;;;24.01;30.37;100815.09;1973010;90;33062;-65
2022/05/07 13:12:33;;;;;;;5.83;3.55;;;;;;;23.94;30.60;100808.81;1977165;89;30612;-64
2022/05/07 13:15:35;;;;;;;5.40;3.85;;;;;;;23.94;30.79;100809.34;1961755;89;27757;-62
2022/05/07 13:18:37;;;;;;;6.33;3.40;;;;;;;23.96;30.73;100809.56;1981566;89;28688;-62
2022/05/07 13:21:41;;;;;;;3.05;2.40;;;;;;;23.93;30.59;100806.24;1980885;89;32295;-64
2022/05/07 13:24:43;;;;;;;5.60;3.45;;;;;;;23.93;30.90;100806.24;1961864;89;33194;-63
2022/05/07 13:27:48;;;;;;;6.20;3.40;;;;;;;23.94;30.82;100801.97;1980924;89;30869;-64
2022/05/07 13:30:55;;;;;;;9.58;2.75;;;;;;;23.91;30.84;100799.53;1980761;89;27793;-65
2022/05/07 13:33:55;;;;;;;6.03;3.33;;;;;;;23.88;30.50;100798.49;1980709;89;28669;-64
2022/05/07 13:36:57;;;;;;;8.30;3.70;;;;;;;23.80;30.40;100792.41;1980919;89;31046;-63
2022/05/07 13:39:59;;;;;;;4.35;3.05;;;;;;;23.74;30.53;100794.89;1981229;89;32951;-65
2022/05/07 13:43:02;;;;;;;6.47;3.40;;;;;;;23.67;30.64;100795.48;1980935;89;29383;-66
2022/05/07 13:46:04;;;;;;;4.37;3.25;;;;;;;23.64;30.71;100789.45;1981181;89;27750;-65
2022/05/07 13:49:06;;;;;;;3.67;2.77;;;;;;;23.56;30.38;100785.22;1980912;89;28638;-64
2022/05/07 13:52:08;;;;;;;11.00;2.95;;;;;;;23.43;30.57;100785.54;1980070;89;31922;-64
2022/05/07 13:55:13;;;;;;;7.12;2.95;;;;;;;23.28;30.37;100786.02;1980921;89;32987;-64
2022/05/07 13:58:14;;;;;;;48.28;5.42;;;;;;;23.19;30.70;100789.61;1981068;89;30129;-65
2022/05/07 14:01:16;;;;;;;12.33;4.50;;;;;;;23.13;30.70;100784.23;1980619;89;27748;-64
2022/05/07 14:04:18;;;;;;;49.63;4.47;;;;;;;23.08;30.84;100777.48;1981170;89;29535;-64
2022/05/07 14:07:20;;;;;;;4.97;2.83;;;;;;;23.04;30.98;100772.80;1980999;89;31852;-63
2022/05/07 14:10:22;;;;;;;5.17;3.30;;;;;;;22.97;30.57;100769.79;1981082;89;33691;-64
2022/05/07 14:13:24;;;;;;;11.80;2.92;;;;;;;22.87;30.36;100770.31;1975437;89;30248;-64
2022/05/07 14:16:26;;;;;;;5.28;2.22;;;;;;;22.83;30.69;100771.61;1971166;90;27626;-63
2022/05/07 14:19:28;;;;;;;11.75;2.75;;;;;;;22.71;30.24;100766.30;1971151;90;28680;-64
2022/05/07 14:22:31;;;;;;;10.82;2.92;;;;;;;22.58;30.07;100760.27;1970588;90;31074;-63
2022/05/07 14:25:34;;;;;;;14.03;3.12;;;;;;;22.51;30.43;100764.56;1969685;90;33786;-64
2022/05/07 14:28:36;;;;;;;10.50;3.47;;;;;;;22.48;30.64;100759.38;1970768;90;29549;-63
2022/05/07 14:31:37;;;;;;;7.10;2.67;;;;;;;22.46;30.68;100758.17;1973173;90;27687;-69
2022/05/07 14:34:39;;;;;;;17.90;3.00;;;;;;;22.46;30.28;100759.02;1972710;90;28661;-63
2022/05/07 14:37:41;;;;;;;6.20;2.92;;;;;;;22.42;30.67;100757.58;1972469;90;31086;-63
2022/05/07 14:40:43;;;;;;;7.15;3.27;;;;;;;22.43;30.94;100751.11;1973328;90;33531;-68
2022/05/07 14:43:48;;;;;;;6.03;3.75;;;;;;;22.42;31.04;100756.20;1973295;90;29416;-63
2022/05/07 14:46:50;;;;;;;9.45;3.45;;;;;;;22.42;30.85;100752.63;1973318;90;27727;-64